createdAt,value
2019-03-18T00:00:42.497Z,99934.00
2019-03-18T00:03:11.108Z,99937.32
2019-03-18T00:05:39.605Z,99929.62
2019-03-18T00:08:08.467Z,99932.91
2019-03-18T00:10:37.244Z,99934.28
2019-03-18T00:13:05.757Z,99940.07
2019-03-18T00:15:34.263Z,99946.11
2019-03-18T00:18:02.787Z,99939.78
2019-03-18T00:20:31.543Z,99949.69
2019-03-18T00:23:00.069Z,99940.07
2019-03-18T00:25:28.590Z,99937.86
2019-03-18T00:27:57.115Z,99938.12
2019-03-18T00:30:25.941Z,99935.38
2019-03-18T00:32:54.472Z,99937.32
2019-03-18T00:35:23.316Z,99941.45
2019-03-18T00:37:51.908Z,99941.16
2019-03-18T00:40:20.742Z,99952.70
2019-03-18T00:42:49.383Z,99938.95
2019-03-18T00:45:17.924Z,99952.16
2019-03-18T00:47:46.697Z,99944.45
2019-03-18T00:50:15.204Z,99937.58
2019-03-18T00:52:43.716Z,99941.16
2019-03-18T00:55:12.254Z,99934.57
2019-03-18T00:57:40.783Z,99934.83
2019-03-18T01:00:09.525Z,99943.91
2019-03-18T01:02:38.016Z,99949.11
2019-03-18T01:05:06.641Z,99942.53
2019-03-18T01:07:35.477Z,99954.06
2019-03-18T01:10:04.550Z,99944.98
2019-03-18T01:12:33.705Z,99952.97
2019-03-18T01:15:02.243Z,99943.61
2019-03-18T01:17:30.756Z,99957.09
2019-03-18T01:19:59.270Z,99945.02
2019-03-18T01:22:27.831Z,99960.93
2019-03-18T01:24:56.983Z,99965.88
2019-03-18T01:27:25.635Z,99954.06
2019-03-18T01:29:54.516Z,99953.26
2019-03-18T01:32:23.005Z,99960.39
2019-03-18T01:34:51.541Z,99956.27
2019-03-18T01:37:20.027Z,99954.06
2019-03-18T01:39:49.014Z,99956.27
2019-03-18T01:42:17.544Z,99958.47
2019-03-18T01:44:46.067Z,99951.31
2019-03-18T01:47:14.870Z,99949.94
2019-03-18T01:49:43.360Z,99940.31
2019-03-18T01:52:11.889Z,99949.94
2019-03-18T01:54:40.450Z,99976.88
2019-03-18T01:57:08.986Z,99961.22
2019-03-18T01:59:37.596Z,99961.22
2019-03-18T02:02:06.138Z,99981.30
2019-03-18T02:04:34.942Z,99989.79
2019-03-18T02:07:03.467Z,99997.23
2019-03-18T02:09:31.999Z,99990.62
2019-03-18T02:12:00.487Z,99991.16
2019-03-18T02:14:28.988Z,99991.16
2019-03-18T02:16:57.540Z,99984.58
2019-03-18T02:19:26.072Z,99978.80
2019-03-18T02:21:54.586Z,99976.05
2019-03-18T02:24:23.072Z,99966.42
2019-03-18T02:26:52.091Z,99971.13
2019-03-18T02:29:20.881Z,99975.25
2019-03-18T02:31:49.409Z,99981.28
2019-03-18T02:34:17.895Z,99997.23
2019-03-18T02:36:46.416Z,99991.16
2019-03-18T02:39:15.190Z,99984.03
2019-03-18T02:41:43.691Z,99976.33
2019-03-18T02:44:12.194Z,99973.58
2019-03-18T02:46:40.878Z,99958.47
2019-03-18T02:49:09.474Z,99960.38
2019-03-18T02:51:38.061Z,99965.88
2019-03-18T02:54:06.579Z,99967.25
2019-03-18T02:56:35.077Z,99973.03
2019-03-18T02:59:03.618Z,99958.46
2019-03-18T03:01:32.147Z,99976.88
2019-03-18T03:04:00.662Z,99985.12
2019-03-18T03:06:29.178Z,99985.11
2019-03-18T03:08:58.015Z,99990.61
2019-03-18T03:11:26.554Z,99981.82
2019-03-18T03:13:55.374Z,99984.28
2019-03-18T03:16:27.218Z,99987.31
2019-03-18T03:18:54.123Z,99986.48
2019-03-18T03:21:22.631Z,99985.11
2019-03-18T03:23:51.149Z,99998.31
2019-03-18T03:26:19.669Z,99997.48
2019-03-18T03:28:48.190Z,100001.06
2019-03-18T03:31:16.711Z,100005.72
2019-03-18T03:33:45.242Z,100006.27
2019-03-18T03:36:13.809Z,100013.42
2019-03-18T03:38:42.292Z,100016.72
2019-03-18T03:41:10.854Z,100025.79
2019-03-18T03:43:39.394Z,100023.59
2019-03-18T03:46:07.894Z,100020.30
2019-03-18T03:48:36.520Z,100034.03
2019-03-18T03:51:05.023Z,100031.00
2019-03-18T03:53:33.869Z,100026.33
2019-03-18T03:56:02.379Z,100032.38
2019-03-18T03:58:30.922Z,100025.24
2019-03-18T04:00:59.442Z,100031.00
2019-03-18T04:03:38.404Z,100039.23
2019-03-18T04:05:58.505Z,100031.83
2019-03-18T04:08:27.092Z,100024.70
2019-03-18T04:10:55.548Z,100037.61
2019-03-18T04:13:24.082Z,100045.85
2019-03-18T04:15:52.837Z,100048.60
2019-03-18T04:18:21.358Z,100046.39
2019-03-18T04:20:49.883Z,100040.89
2019-03-18T04:23:18.434Z,100046.67
2019-03-18T04:25:46.978Z,100046.94
2019-03-18T04:28:15.587Z,100048.05
2019-03-18T04:30:44.097Z,100043.93
2019-03-18T04:33:12.897Z,100047.22
2019-03-18T04:35:41.789Z,100036.77
2019-03-18T04:38:10.282Z,100040.06
2019-03-18T04:40:39.068Z,100052.17
2019-03-18T04:43:07.585Z,100045.84
2019-03-18T04:45:36.467Z,100047.22
2019-03-18T04:48:04.996Z,100058.75
2019-03-18T04:50:33.641Z,100048.30
2019-03-18T04:53:02.169Z,100054.63
2019-03-18T04:55:30.707Z,100050.50
2019-03-18T04:57:59.207Z,100062.61
2019-03-18T05:00:27.806Z,100060.13
2019-03-18T05:02:56.552Z,100064.25
2019-03-18T05:05:25.053Z,100060.67
2019-03-18T05:07:53.551Z,100068.37
2019-03-18T05:10:22.093Z,100077.73
2019-03-18T05:12:50.620Z,100098.59
2019-03-18T05:15:19.161Z,100101.09
2019-03-18T05:17:47.705Z,100102.72
2019-03-18T05:20:16.245Z,100102.45
2019-03-18T05:22:45.094Z,100105.20
2019-03-18T05:25:13.612Z,100109.88
2019-03-18T05:27:42.148Z,100111.78
2019-03-18T05:30:10.847Z,100113.99
2019-03-18T05:32:39.345Z,100109.03
2019-03-18T05:35:07.951Z,100115.61
2019-03-18T05:37:36.522Z,100120.57
2019-03-18T05:40:05.106Z,100121.11
2019-03-18T05:42:33.621Z,100125.23
2019-03-18T05:45:02.443Z,100127.98
2019-03-18T05:47:39.057Z,100127.17
2019-03-18T05:50:01.471Z,100127.17
2019-03-18T05:52:30.320Z,100067.89
2019-03-18T05:54:58.863Z,100136.50
2019-03-18T05:57:27.354Z,100130.17
2019-03-18T05:59:55.902Z,100141.45
2019-03-18T06:02:24.754Z,100148.03
2019-03-18T06:04:53.293Z,100151.99
2019-03-18T06:07:21.801Z,100159.78
2019-03-18T06:09:50.334Z,100165.40
2019-03-18T06:12:18.817Z,100164.16
2019-03-18T06:14:47.376Z,100180.55
2019-03-18T06:17:16.179Z,100177.57
2019-03-18T06:19:44.698Z,100178.05
2019-03-18T06:22:13.262Z,100170.23
2019-03-18T06:24:41.807Z,100171.88
2019-03-18T06:27:10.590Z,100170.67
2019-03-18T06:29:39.126Z,100178.07
2019-03-18T06:32:08.009Z,100179.54
2019-03-18T06:34:36.547Z,100189.14
2019-03-18T06:37:05.070Z,100189.92
2019-03-18T06:39:33.936Z,100182.72
2019-03-18T06:42:02.729Z,100193.02
2019-03-18T06:44:31.514Z,100197.81
2019-03-18T06:47:00.060Z,100201.49
2019-03-18T06:49:28.906Z,100193.60
2019-03-18T06:51:57.425Z,100201.38
2019-03-18T06:54:25.952Z,100199.50
2019-03-18T06:56:54.469Z,100191.61
2019-03-18T06:59:23.023Z,100216.36
2019-03-18T07:01:51.503Z,100218.05
2019-03-18T07:04:20.170Z,100211.50
2019-03-18T07:06:48.923Z,100227.18
2019-03-18T07:09:17.442Z,100226.96
2019-03-18T07:11:46.259Z,100223.70
2019-03-18T07:14:14.771Z,100226.47
2019-03-18T07:16:43.267Z,100228.40
2019-03-18T07:19:11.791Z,100236.36
2019-03-18T07:21:40.406Z,100236.39
2019-03-18T07:24:09.352Z,100251.79
2019-03-18T07:26:37.855Z,100242.20
2019-03-18T07:29:06.379Z,100260.31
2019-03-18T07:31:34.891Z,100265.00
2019-03-18T07:34:03.656Z,100269.41
2019-03-18T07:36:32.424Z,100262.25
2019-03-18T07:39:01.367Z,100267.50
2019-03-18T07:41:29.899Z,100269.67
2019-03-18T07:43:58.428Z,100276.55
2019-03-18T07:46:26.980Z,100273.27
2019-03-18T07:48:55.499Z,100274.93
2019-03-18T07:51:25.342Z,100291.41
2019-03-18T07:53:53.871Z,100279.88
2019-03-18T07:56:22.368Z,100288.13
2019-03-18T07:58:50.879Z,100277.94
2019-03-18T08:01:19.530Z,100284.27
2019-03-18T08:03:48.291Z,100288.39
2019-03-18T08:06:16.817Z,100287.86
2019-03-18T08:08:45.402Z,100310.94
2019-03-18T08:11:14.188Z,100311.77
2019-03-18T08:13:42.766Z,100315.35
2019-03-18T08:16:11.386Z,100316.75
2019-03-18T08:18:43.436Z,100296.14
2019-03-18T08:21:10.126Z,100310.72
2019-03-18T08:23:38.643Z,100321.70
2019-03-18T08:26:07.170Z,100326.37
2019-03-18T08:28:35.692Z,100334.61
2019-03-18T08:31:04.217Z,100344.77
2019-03-18T08:33:32.737Z,100353.02
2019-03-18T08:36:01.531Z,100343.94
2019-03-18T08:38:30.059Z,100344.47
2019-03-18T08:40:58.582Z,100347.22
2019-03-18T08:43:27.098Z,100351.09
2019-03-18T08:45:55.610Z,100355.22
2019-03-18T08:48:24.183Z,100353.84
2019-03-18T08:50:52.729Z,100367.31
2019-03-18T08:53:21.274Z,100377.23
2019-03-18T08:55:49.771Z,100381.05
2019-03-18T08:58:18.287Z,100374.48
2019-03-18T09:00:46.829Z,100373.11
2019-03-18T09:03:15.341Z,100373.38
2019-03-18T09:05:44.175Z,100374.20
2019-03-18T09:08:12.682Z,100369.55
2019-03-18T09:10:41.183Z,100369.55
2019-03-18T09:13:10.274Z,100363.51
2019-03-18T09:15:38.805Z,100380.80
2019-03-18T09:18:07.322Z,100377.28
2019-03-18T09:20:35.883Z,100398.16
2019-03-18T09:23:04.736Z,100403.63
2019-03-18T09:25:33.572Z,100433.85
2019-03-18T09:28:02.094Z,100447.56
2019-03-18T09:30:31.195Z,100447.84
2019-03-18T09:32:59.701Z,100451.42
2019-03-18T09:35:28.251Z,100444.26
2019-03-18T09:37:56.782Z,100455.79
2019-03-18T09:40:25.295Z,100452.50
2019-03-18T09:42:54.148Z,100460.20
2019-03-18T09:45:22.990Z,100453.87
2019-03-18T09:47:51.481Z,100456.39
2019-03-18T09:50:20.269Z,100450.05
2019-03-18T09:52:48.823Z,100452.80
2019-03-18T09:55:17.574Z,100447.56
2019-03-18T09:57:46.099Z,100451.99
2019-03-18T10:00:14.615Z,100461.31
2019-03-18T10:02:43.154Z,100465.20
2019-03-18T10:05:11.686Z,100464.63
2019-03-18T10:07:40.198Z,100475.11
2019-03-18T10:10:08.789Z,100482.81
2019-03-18T10:12:37.343Z,100483.91
2019-03-18T10:15:06.774Z,100484.22
2019-03-18T10:17:35.302Z,100487.23
2019-03-18T10:20:04.238Z,100501.81
2019-03-18T10:22:35.899Z,100500.44
2019-03-18T10:25:04.469Z,100503.72
2019-03-18T10:27:33.053Z,100497.13
2019-03-18T10:30:01.625Z,100495.75
2019-03-18T10:32:30.132Z,100506.20
2019-03-18T10:34:58.647Z,100496.28
2019-03-18T10:37:27.447Z,100509.49
2019-03-18T10:39:55.957Z,100508.66
2019-03-18T10:42:24.463Z,100508.95
2019-03-18T10:44:52.989Z,100505.09
2019-03-18T10:47:21.532Z,100523.56
2019-03-18T10:49:50.338Z,100536.20
2019-03-18T10:52:18.978Z,100581.83
2019-03-18T10:54:47.463Z,100576.56
2019-03-18T10:57:16.060Z,100581.48
2019-03-18T10:59:44.523Z,100585.61
2019-03-18T11:02:13.042Z,100571.03
2019-03-18T11:04:41.586Z,100575.69
2019-03-18T11:07:10.196Z,100571.00
2019-03-18T11:09:38.692Z,100569.87
2019-03-18T11:12:07.227Z,100583.61
2019-03-18T11:14:36.052Z,100587.49
2019-03-18T11:17:04.560Z,100589.44
2019-03-18T11:19:33.089Z,100587.77
2019-03-18T11:22:01.630Z,100563.13
2019-03-18T11:24:30.538Z,100589.44
2019-03-18T11:26:59.062Z,100592.19
2019-03-18T11:29:27.567Z,100590.30
2019-03-18T11:31:56.100Z,100604.34
2019-03-18T11:34:24.645Z,100635.95
2019-03-18T11:36:53.144Z,100648.33
2019-03-18T11:39:21.635Z,100693.11
2019-03-18T11:41:50.173Z,100669.45
2019-03-18T11:44:18.979Z,100676.05
2019-03-18T11:46:47.500Z,100684.83
2019-03-18T11:49:16.025Z,100674.91
2019-03-18T11:51:44.540Z,100678.22
2019-03-18T11:54:13.106Z,100685.09
2019-03-18T11:56:41.625Z,100689.22
2019-03-18T11:59:10.175Z,100693.08
2019-03-18T12:01:38.682Z,100680.81
2019-03-18T12:04:07.262Z,100681.45
2019-03-18T12:06:35.875Z,100676.83
2019-03-18T12:09:05.368Z,100676.36
2019-03-18T12:11:33.946Z,100673.14
2019-03-18T12:14:02.478Z,100674.23
2019-03-18T12:16:31.251Z,100676.19
2019-03-18T12:18:59.801Z,100667.43
2019-03-18T12:21:28.342Z,100666.69
2019-03-18T12:23:57.155Z,100666.27
2019-03-18T12:26:25.708Z,100652.03
2019-03-18T12:28:54.319Z,100653.77
2019-03-18T12:31:22.822Z,100656.84
2019-03-18T12:33:51.311Z,100660.96
2019-03-18T12:36:19.887Z,100653.27
2019-03-18T12:38:48.426Z,100642.29
2019-03-18T12:41:16.947Z,100643.10
2019-03-18T12:43:45.465Z,100670.81
2019-03-18T12:46:13.999Z,100669.34
2019-03-18T12:48:43.081Z,100672.09
2019-03-18T12:51:11.596Z,100665.01
2019-03-18T12:53:40.142Z,100687.67
2019-03-18T12:56:08.651Z,100682.58
2019-03-18T12:58:37.175Z,100676.47
2019-03-18T13:01:12.550Z,100689.10
2019-03-18T13:03:36.323Z,100678.04
2019-03-18T13:06:04.831Z,100696.80
2019-03-18T13:08:33.990Z,100686.35
2019-03-18T13:11:02.485Z,100702.65
2019-03-18T13:13:30.996Z,100695.77
2019-03-18T13:15:59.521Z,100701.57
2019-03-18T13:18:28.045Z,100717.81
2019-03-18T13:21:07.378Z,100708.75
2019-03-18T13:23:27.119Z,100702.63
2019-03-18T13:25:55.636Z,100714.23
2019-03-18T13:28:24.170Z,100713.73
2019-03-18T13:30:52.701Z,100728.42
2019-03-18T13:33:21.556Z,100720.23
2019-03-18T13:35:50.068Z,100723.04
2019-03-18T13:38:18.564Z,100729.15
2019-03-18T13:40:47.058Z,100729.09
2019-03-18T13:43:15.578Z,100737.81
2019-03-18T13:45:54.858Z,100742.67
2019-03-18T13:48:14.383Z,100747.02
2019-03-18T13:50:42.911Z,100746.15
2019-03-18T13:53:11.757Z,100744.53
2019-03-18T13:55:40.295Z,100752.04
2019-03-18T13:58:08.795Z,100772.71
2019-03-18T14:00:37.320Z,100768.28
2019-03-18T14:03:05.958Z,100779.54
2019-03-18T14:05:34.463Z,100782.77
2019-03-18T14:08:03.279Z,100770.02
2019-03-18T14:10:31.875Z,100796.94
2019-03-18T14:13:00.392Z,100802.72
2019-03-18T14:15:28.918Z,100850.00
2019-03-18T14:17:57.441Z,100842.52
2019-03-18T14:20:25.974Z,100853.18
2019-03-18T14:22:54.502Z,100850.93
2019-03-18T14:25:23.360Z,100863.69
2019-03-18T14:27:51.864Z,100855.27
2019-03-18T14:30:20.464Z,100840.64
2019-03-18T14:32:49.320Z,100834.80
2019-03-18T14:35:21.629Z,100834.99
2019-03-18T14:37:48.088Z,100838.35
2019-03-18T14:40:16.774Z,100836.74
2019-03-18T14:42:45.314Z,100843.02
2019-03-18T14:45:15.775Z,100839.05
2019-03-18T14:47:44.298Z,100841.53
2019-03-18T14:50:12.865Z,100841.77
2019-03-18T14:52:41.668Z,100842.64
2019-03-18T14:55:10.445Z,100831.41
2019-03-18T14:57:39.263Z,100829.98
2019-03-18T15:00:14.725Z,100848.41
2019-03-18T15:02:43.364Z,100866.84
2019-03-18T15:05:12.102Z,100892.09
2019-03-18T15:07:40.600Z,100896.77
2019-03-18T15:10:09.611Z,100897.96
2019-03-18T15:12:38.134Z,100902.56
2019-03-18T15:15:07.288Z,100898.33
2019-03-18T15:17:35.801Z,100898.20
2019-03-18T15:20:04.827Z,100908.49
2019-03-18T15:22:33.671Z,100925.66
2019-03-18T15:25:02.216Z,100966.98
2019-03-18T15:27:30.791Z,100956.88
2019-03-18T15:29:59.342Z,100962.72
2019-03-18T15:32:27.870Z,100964.14
2019-03-18T15:34:56.358Z,100961.97
2019-03-18T15:37:24.899Z,100961.71
2019-03-18T15:39:53.417Z,100960.08
2019-03-18T15:42:21.945Z,100952.98
2019-03-18T15:44:50.507Z,100945.84
2019-03-18T15:47:19.028Z,100955.51
2019-03-18T15:49:47.559Z,100947.61
2019-03-18T15:52:16.386Z,100952.94
2019-03-18T15:54:53.739Z,100957.41
2019-03-18T15:57:15.524Z,100959.17
2019-03-18T15:59:44.130Z,100973.77
2019-03-18T16:02:12.866Z,100974.58
2019-03-18T16:04:41.377Z,100981.64
2019-03-18T16:07:09.894Z,101004.13
2019-03-18T16:09:38.829Z,100995.56
2019-03-18T16:12:07.332Z,101006.22
2019-03-18T16:14:36.075Z,101035.89
2019-03-18T16:17:04.605Z,101023.47
2019-03-18T16:19:33.136Z,101023.42
2019-03-18T16:22:01.667Z,101031.39
2019-03-18T16:24:30.203Z,101030.25
2019-03-18T16:26:58.738Z,101044.56
2019-03-18T16:29:27.253Z,101033.25
2019-03-18T16:31:55.762Z,101043.41
2019-03-18T16:34:24.267Z,101043.14
2019-03-18T16:36:52.807Z,101043.36
2019-03-18T16:39:21.346Z,101048.59
2019-03-18T16:41:49.920Z,101059.81
2019-03-18T16:44:18.486Z,101068.63
2019-03-18T16:46:47.050Z,101065.05
2019-03-18T16:49:15.588Z,101065.83
2019-03-18T16:51:44.241Z,101067.73
2019-03-18T16:54:12.783Z,101055.91
2019-03-18T16:56:41.319Z,101056.16
2019-03-18T16:59:09.864Z,101061.34
2019-03-18T17:01:38.358Z,101062.72
2019-03-18T17:04:06.923Z,101070.97
2019-03-18T17:06:37.851Z,101067.91
2019-03-18T17:09:07.255Z,101066.54
2019-03-18T17:11:36.005Z,101076.73
2019-03-18T17:14:04.957Z,101080.02
2019-03-18T17:16:33.489Z,101070.39
2019-03-18T17:19:02.366Z,101084.13
2019-03-18T17:21:30.916Z,101076.95
2019-03-18T17:23:59.440Z,101085.77
2019-03-18T17:26:27.959Z,101093.45
2019-03-18T17:28:56.474Z,101094.02
2019-03-18T17:31:25.044Z,101102.48
2019-03-18T17:33:53.853Z,101110.46
2019-03-18T17:36:22.373Z,101102.21
2019-03-18T17:38:50.877Z,101120.84
2019-03-18T17:41:19.623Z,101127.17
2019-03-18T17:43:48.161Z,101128.27
2019-03-18T17:46:17.032Z,101142.02
2019-03-18T17:48:45.570Z,101145.30
2019-03-18T17:51:14.118Z,101150.49
2019-03-18T17:53:42.935Z,101157.36
2019-03-18T17:56:11.479Z,101160.67
2019-03-18T17:58:40.015Z,101162.81
2019-03-18T18:01:08.853Z,101169.14
2019-03-18T18:03:37.382Z,101189.48
2019-03-18T18:06:05.961Z,101195.80
2019-03-18T18:08:34.496Z,101201.29
2019-03-18T18:11:02.977Z,101199.11
2019-03-18T18:13:31.537Z,101205.41
2019-03-18T18:16:00.168Z,101221.62
2019-03-18T18:18:29.018Z,101217.78
2019-03-18T18:20:57.525Z,101222.16
2019-03-18T18:23:26.102Z,101227.66
2019-03-18T18:25:54.624Z,101231.78
2019-03-18T18:28:23.154Z,101235.91
2019-03-18T18:30:51.762Z,101244.69
2019-03-18T18:33:20.303Z,101244.41
2019-03-18T18:35:48.782Z,101243.84
2019-03-18T18:38:17.310Z,101251.55
2019-03-18T18:40:45.846Z,101250.71
2019-03-18T18:43:14.363Z,101256.21
2019-03-18T18:45:42.877Z,101256.77
2019-03-18T18:48:11.429Z,101264.17
2019-03-18T18:50:40.038Z,101272.42
2019-03-18T18:53:08.561Z,101269.67
2019-03-18T18:55:37.059Z,101274.64
2019-03-18T18:58:05.585Z,101281.52
2019-03-18T19:00:34.110Z,101294.42
2019-03-18T19:03:02.620Z,101289.20
2019-03-18T19:05:31.156Z,101296.07
2019-03-18T19:07:59.675Z,101300.20
2019-03-18T19:10:28.183Z,101303.51
2019-03-18T19:12:56.737Z,101304.88
2019-03-18T19:15:25.565Z,101308.16
2019-03-18T19:17:54.079Z,101310.06
2019-03-18T19:20:22.600Z,101310.38
2019-03-18T19:22:51.512Z,101321.91
2019-03-18T19:25:20.067Z,101322.75
2019-03-18T19:27:48.670Z,101317.47
2019-03-18T19:30:18.033Z,101322.97
2019-03-18T19:32:46.550Z,101328.47
2019-03-18T19:35:15.092Z,101318.03
2019-03-18T19:37:43.910Z,101327.09
2019-03-18T19:40:13.065Z,101306.72
2019-03-18T19:42:41.797Z,101330.69
2019-03-18T19:45:11.352Z,101337.09
2019-03-18T19:47:39.861Z,101344.64
2019-03-18T19:50:10.772Z,101351.38
2019-03-18T19:52:40.163Z,101362.02
2019-03-18T19:55:08.976Z,101371.27
2019-03-18T19:57:37.493Z,101375.84
2019-03-18T20:00:07.522Z,101376.84
2019-03-18T20:02:36.122Z,101378.12
2019-03-18T20:05:14.625Z,101386.84
2019-03-18T20:07:35.182Z,101389.59
2019-03-18T20:10:03.740Z,101390.70
2019-03-18T20:12:32.247Z,101393.16
2019-03-18T20:15:00.768Z,101396.50
2019-03-18T20:17:29.288Z,101392.01
2019-03-18T20:19:57.808Z,101395.54
2019-03-18T20:22:26.555Z,101397.02
2019-03-18T20:24:55.091Z,101399.18
2019-03-18T20:27:23.861Z,101403.13
2019-03-18T20:29:52.460Z,101402.66
2019-03-18T20:32:20.966Z,101407.92
2019-03-18T20:34:49.811Z,101408.73
2019-03-18T20:37:18.337Z,101419.91
2019-03-18T20:39:47.183Z,101420.13
2019-03-18T20:42:15.707Z,101426.61
2019-03-18T20:44:44.291Z,101424.60
2019-03-18T20:47:12.814Z,101425.52
2019-03-18T20:49:41.623Z,101423.13
2019-03-18T20:52:16.823Z,101429.32
2019-03-18T20:54:41.629Z,101421.98
2019-03-18T20:57:10.323Z,101425.66
2019-03-18T20:59:38.858Z,101425.16
2019-03-18T21:02:07.359Z,101427.98
2019-03-18T21:04:35.904Z,101431.33
2019-03-18T21:07:04.749Z,101431.95
2019-03-18T21:09:33.577Z,101435.30
2019-03-18T21:12:02.093Z,101434.20
2019-03-18T21:14:30.747Z,101448.27
2019-03-18T21:16:59.550Z,101448.55
2019-03-18T21:19:28.081Z,101446.11
2019-03-18T21:21:56.924Z,101455.73
2019-03-18T21:24:25.431Z,101462.36
2019-03-18T21:26:53.971Z,101458.80
2019-03-18T21:29:22.483Z,101457.95
2019-03-18T21:31:51.051Z,101461.55
2019-03-18T21:34:19.585Z,101460.70
2019-03-18T21:36:48.373Z,101461.23
2019-03-18T21:39:18.061Z,101469.16
2019-03-18T21:41:46.688Z,101474.97
2019-03-18T21:44:15.209Z,101482.16
2019-03-18T21:46:43.745Z,101477.19
2019-03-18T21:49:12.270Z,101487.66
2019-03-18T21:51:40.783Z,101482.44
2019-03-18T21:54:09.399Z,101484.66
2019-03-18T21:56:38.065Z,101498.72
2019-03-18T21:59:06.607Z,101503.12
2019-03-18T22:01:35.132Z,101508.09
2019-03-18T22:04:03.666Z,101518.56
2019-03-18T22:06:32.224Z,101519.38
2019-03-18T22:09:00.731Z,101514.72
2019-03-18T22:11:29.247Z,101518.31
2019-03-18T22:13:57.791Z,101518.31
2019-03-18T22:16:26.335Z,101524.13
2019-03-18T22:18:54.871Z,101532.91
2019-03-18T22:21:23.413Z,101535.13
2019-03-18T22:23:51.930Z,101532.66
2019-03-18T22:26:20.458Z,101536.25
2019-03-18T22:28:48.976Z,101538.69
2019-03-18T22:31:17.469Z,101544.19
2019-03-18T22:33:46.046Z,101546.13
2019-03-18T22:36:14.911Z,101545.80
2019-03-18T22:38:43.421Z,101536.19
2019-03-18T22:41:11.929Z,101532.06
2019-03-18T22:43:40.435Z,101540.31
2019-03-18T22:46:09.014Z,101543.05
2019-03-18T22:48:37.483Z,101540.55
2019-03-18T22:51:06.307Z,101538.09
2019-03-18T22:53:34.826Z,101541.36
2019-03-18T22:56:03.348Z,101545.20
2019-03-18T22:58:31.860Z,101550.70
2019-03-18T23:01:11.255Z,101558.95
2019-03-18T23:03:39.779Z,101562.54
2019-03-18T23:06:08.326Z,101561.70
2019-03-18T23:08:36.831Z,101556.73
2019-03-18T23:11:05.350Z,101558.42
2019-03-18T23:13:33.912Z,101561.70
2019-03-18T23:16:02.509Z,101563.91
2019-03-18T23:18:31.021Z,101561.98
2019-03-18T23:20:59.533Z,101573.30
2019-03-18T23:23:28.053Z,101576.05
2019-03-18T23:25:56.567Z,101573.30
2019-03-18T23:28:25.095Z,101570.55
2019-03-18T23:30:53.623Z,101568.32
2019-03-18T23:33:22.156Z,101579.11
2019-03-18T23:35:50.724Z,101579.63
2019-03-18T23:38:19.275Z,101580.77
2019-03-18T23:40:47.807Z,101588.41
2019-03-18T23:43:16.316Z,101591.48
2019-03-18T23:45:45.155Z,101594.75
2019-03-18T23:48:13.662Z,101597.50
2019-03-18T23:50:42.188Z,101602.47
2019-03-18T23:53:10.697Z,101604.38
2019-03-18T23:55:39.207Z,101604.91
2019-03-18T23:58:07.759Z,101615.90
